Grudziadz, Poland
Current Conditions -  °F | °C
As of 12:00 AM on Monday 26 Jan 2015 (Local Time) from EPBY Reporting Station
Broken Clouds Broken Clouds  
Wind Chill: 32°   Ceiling: 4200
Heat Index: 32°   Visibility: 4mi
Dew Point: 32°   Wind: 3mph
Humidity: 100%   Direction: 260°W
Pressure: 30.24"   Gusts: NA
Location:  53.49°N, 18.75°E
Report Text: EPBY 252200Z 26003KT 7000 SCT004 BKN042 00/M00 Q1024
Loading
Personal Weather Stations






























Interactive Weather Map New forecast layout! Learn more

10-Day Weather Forecast

Advertisements
Track Severe Weather on mobile